Pea Ridge, Arkansas
Current Conditions -  °F | °C
As of 2:57 PM on Tuesday 25 Nov 2014 (Local Time) from KROG Reporting Station
Scattered Clouds Scattered Clouds  
Wind Chill: 41°   Ceiling: Unl
Heat Index: 46°   Visibility: 10mi
Dew Point: 20°   Wind: 9mph
Humidity: 35%   Direction: 290°WNW
Pressure: 30.15"   Gusts: NA
Location:  36.45°N, 94.12°W
Report Text: KROG 252057Z 29008KT 10SM SCT080 08/M07 A3015 RMK AO2 SLP216 T00781067 56025
Loading
Personal Weather Stations






























Interactive Weather Map New forecast layout! Learn more

10-Day Weather Forecast

Advertisements
Track Severe Weather on mobile